createdAt,value
2023-01-29T00:01:56.445Z,8.27
2023-01-29T00:04:24.022Z,18.75
2023-01-29T00:06:51.031Z,12.80
2023-01-29T00:09:18.787Z,11.52
2023-01-29T00:11:45.762Z,9.25
2023-01-29T00:14:12.724Z,11.02
2023-01-29T00:16:39.863Z,9.73
2023-01-29T00:19:07.113Z,8.30
2023-01-29T00:21:34.276Z,8.35
2023-01-29T00:24:01.329Z,12.20
2023-01-29T00:26:29.010Z,11.20
2023-01-29T00:29:00.678Z,9.43
2023-01-29T00:31:28.018Z,10.32
2023-01-29T00:33:55.120Z,10.88
2023-01-29T00:36:23.288Z,8.80
2023-01-29T00:38:59.107Z,8.95
2023-01-29T00:41:52.135Z,9.13
2023-01-29T00:44:37.585Z,9.52
2023-01-29T00:47:26.018Z,7.85
2023-01-29T00:49:53.214Z,7.97
2023-01-29T00:52:25.975Z,8.00
2023-01-29T00:54:58.204Z,7.95
2023-01-29T00:57:27.234Z,8.38
2023-01-29T00:59:54.408Z,7.40
2023-01-29T01:02:40.869Z,7.85
2023-01-29T01:05:14.003Z,7.40
2023-01-29T01:07:41.630Z,7.20
2023-01-29T01:10:21.647Z,7.00
2023-01-29T01:12:59.333Z,7.80
2023-01-29T01:15:29.269Z,7.20
2023-01-29T01:17:58.877Z,6.95
2023-01-29T01:20:28.917Z,7.97
2023-01-29T01:22:56.347Z,7.07
2023-01-29T01:25:24.916Z,8.15
2023-01-29T01:27:56.689Z,7.32
2023-01-29T01:30:24.669Z,7.72
2023-01-29T01:32:51.795Z,8.32
2023-01-29T01:35:19.118Z,7.45
2023-01-29T01:37:46.172Z,7.32
2023-01-29T01:40:24.268Z,7.53
2023-01-29T01:42:55.456Z,7.95
2023-01-29T01:45:33.429Z,8.60
2023-01-29T01:48:15.501Z,7.88
2023-01-29T01:50:50.835Z,8.60
2023-01-29T01:53:25.735Z,7.60
2023-01-29T01:56:03.436Z,7.00
2023-01-29T01:58:59.633Z,8.23
2023-01-29T02:01:28.416Z,7.55
2023-01-29T02:04:28.050Z,8.85
2023-01-29T02:07:15.660Z,8.07
2023-01-29T02:09:49.142Z,8.07
2023-01-29T02:12:17.129Z,8.35
2023-01-29T02:14:44.869Z,7.80
2023-01-29T02:17:14.812Z,7.93
2023-01-29T02:20:14.905Z,7.85
2023-01-29T02:23:23.313Z,7.68
2023-01-29T02:26:09.166Z,6.97
2023-01-29T02:29:22.692Z,7.30
2023-01-29T02:32:09.490Z,6.07
2023-01-29T02:35:09.265Z,8.00
2023-01-29T02:37:48.907Z,7.00
2023-01-29T02:40:31.451Z,8.13
2023-01-29T02:43:29.126Z,7.25
2023-01-29T02:46:16.062Z,8.40
2023-01-29T02:49:01.022Z,7.90
2023-01-29T02:52:03.354Z,7.55
2023-01-29T02:54:33.260Z,8.60
2023-01-29T02:57:15.044Z,8.40
2023-01-29T02:59:51.742Z,8.65
2023-01-29T03:02:36.016Z,7.55
2023-01-29T03:05:08.549Z,8.73
2023-01-29T03:07:41.326Z,8.13
2023-01-29T03:10:18.355Z,8.20
2023-01-29T03:12:52.128Z,7.88
2023-01-29T03:15:27.305Z,7.70
2023-01-29T03:18:22.529Z,8.15
2023-01-29T03:20:58.460Z,7.25
2023-01-29T03:23:47.897Z,7.78
2023-01-29T03:26:38.975Z,7.97
2023-01-29T03:29:27.665Z,8.00
2023-01-29T03:32:09.440Z,7.45
2023-01-29T03:34:46.762Z,7.47
2023-01-29T03:37:23.249Z,7.53
2023-01-29T03:39:50.342Z,7.45
2023-01-29T03:42:38.468Z,7.85
2023-01-29T03:45:28.061Z,7.35
2023-01-29T03:48:12.194Z,7.28
2023-01-29T03:51:00.649Z,7.00
2023-01-29T03:53:46.410Z,7.85
2023-01-29T03:56:41.918Z,7.30
2023-01-29T03:59:31.527Z,7.53
2023-01-29T04:02:28.059Z,7.50
2023-01-29T04:05:02.255Z,7.45
2023-01-29T04:07:33.590Z,8.38
2023-01-29T04:12:52.586Z,8.70
2023-01-29T04:15:22.461Z,8.45
2023-01-29T04:17:52.879Z,7.55
2023-01-29T04:20:32.265Z,7.53
2023-01-29T04:23:00.113Z,8.18
2023-01-29T04:25:32.653Z,8.15
2023-01-29T04:28:15.340Z,7.97
2023-01-29T04:30:46.390Z,7.22
2023-01-29T04:33:41.124Z,8.40
2023-01-29T04:36:14.495Z,7.63
2023-01-29T04:39:05.743Z,8.13
2023-01-29T04:41:55.855Z,8.10
2023-01-29T04:44:49.916Z,8.32
2023-01-29T04:47:20.183Z,7.70
2023-01-29T04:49:49.640Z,8.05
2023-01-29T04:52:45.175Z,9.68
2023-01-29T04:55:37.040Z,8.48
2023-01-29T04:58:14.539Z,8.50
2023-01-29T05:00:44.427Z,7.60
2023-01-29T05:03:15.927Z,8.35
2023-01-29T05:05:48.113Z,8.45
2023-01-29T05:08:19.524Z,8.63
2023-01-29T05:10:49.667Z,8.32
2023-01-29T05:13:19.527Z,8.32
2023-01-29T05:16:19.289Z,8.75
2023-01-29T05:18:46.895Z,8.52
2023-01-29T05:21:13.859Z,9.55
2023-01-29T05:23:53.406Z,8.07
2023-01-29T05:26:39.773Z,8.55
2023-01-29T05:29:06.753Z,8.25
2023-01-29T05:31:33.747Z,9.30
2023-01-29T05:34:00.715Z,8.90
2023-01-29T05:36:27.772Z,9.18
2023-01-29T05:38:54.728Z,9.50
2023-01-29T05:41:21.663Z,8.70
2023-01-29T05:43:48.612Z,9.68
2023-01-29T05:46:15.567Z,10.48
2023-01-29T05:48:42.524Z,9.90
2023-01-29T05:51:09.560Z,8.80
2023-01-29T05:53:36.612Z,8.73
2023-01-29T05:56:04.738Z,9.63
2023-01-29T05:58:32.888Z,10.10
2023-01-29T06:01:12.291Z,9.70
2023-01-29T06:03:39.288Z,9.85
2023-01-29T06:06:06.701Z,9.85
2023-01-29T06:08:33.780Z,9.65
2023-01-29T06:11:00.887Z,10.07
2023-01-29T06:13:27.839Z,11.35
2023-01-29T06:15:55.872Z,9.75
2023-01-29T06:18:22.768Z,9.73
2023-01-29T06:20:49.699Z,10.05
2023-01-29T06:23:16.825Z,9.68
2023-01-29T06:25:43.878Z,9.65
2023-01-29T06:28:10.814Z,11.70
2023-01-29T06:30:37.748Z,9.80
2023-01-29T06:33:04.660Z,10.80
2023-01-29T06:35:31.574Z,11.60
2023-01-29T06:37:58.471Z,10.95
2023-01-29T06:40:26.228Z,10.02
2023-01-29T06:42:53.101Z,9.80
2023-01-29T06:45:20.069Z,11.85
2023-01-29T06:47:47.027Z,10.25
2023-01-29T06:50:14.086Z,10.32
2023-01-29T06:52:41.114Z,10.10
2023-01-29T06:55:08.543Z,10.77
2023-01-29T06:57:35.531Z,10.90
2023-01-29T07:00:02.433Z,10.98
2023-01-29T07:02:29.478Z,10.35
2023-01-29T07:04:56.407Z,11.32
2023-01-29T07:07:23.333Z,11.35
2023-01-29T07:09:50.317Z,11.85
2023-01-29T07:12:17.254Z,10.02
2023-01-29T07:14:44.199Z,12.27
2023-01-29T07:17:11.116Z,11.45
2023-01-29T07:19:38.047Z,10.85
2023-01-29T07:22:05.784Z,11.50
2023-01-29T07:24:33.050Z,11.48
2023-01-29T07:26:59.973Z,10.43
2023-01-29T07:29:27.028Z,11.68
2023-01-29T07:31:53.996Z,11.50
2023-01-29T07:34:21.018Z,10.85
2023-01-29T07:36:48.018Z,12.10
2023-01-29T07:39:15.031Z,11.43
2023-01-29T07:41:42.063Z,12.32
2023-01-29T07:44:16.296Z,11.27
2023-01-29T07:46:43.738Z,11.82
2023-01-29T07:49:10.691Z,12.02
2023-01-29T07:51:37.626Z,11.63
2023-01-29T07:54:05.232Z,13.70
2023-01-29T07:56:35.887Z,12.50
2023-01-29T07:59:03.574Z,13.07
2023-01-29T08:01:31.528Z,12.73
2023-01-29T08:03:58.923Z,12.40
2023-01-29T08:06:26.032Z,11.57
2023-01-29T08:08:53.683Z,13.55
2023-01-29T08:11:20.742Z,12.00
2023-01-29T08:13:47.764Z,13.18
2023-01-29T08:16:14.872Z,12.38
2023-01-29T08:18:46.331Z,13.35
2023-01-29T08:21:15.032Z,10.60
2023-01-29T08:23:41.960Z,10.52
2023-01-29T08:26:09.301Z,11.65
2023-01-29T08:28:38.719Z,12.35
2023-01-29T08:31:13.895Z,12.48
2023-01-29T08:33:40.817Z,12.40
2023-01-29T08:36:08.986Z,11.85
2023-01-29T08:38:36.317Z,11.85
2023-01-29T08:41:03.607Z,12.73
2023-01-29T08:43:30.695Z,13.07
2023-01-29T08:45:57.665Z,13.35
2023-01-29T08:48:25.261Z,14.55
2023-01-29T08:50:52.182Z,14.63
2023-01-29T08:53:24.379Z,14.30
2023-01-29T08:55:51.774Z,15.20
2023-01-29T08:58:19.084Z,14.23
2023-01-29T09:00:46.815Z,14.88
2023-01-29T09:03:14.153Z,13.95
2023-01-29T09:05:41.983Z,12.88
2023-01-29T09:08:09.983Z,14.23
2023-01-29T09:10:37.152Z,13.73
2023-01-29T09:13:04.923Z,14.73
2023-01-29T09:15:32.019Z,14.85
2023-01-29T09:18:02.419Z,13.57
2023-01-29T09:20:29.323Z,13.20
2023-01-29T09:22:56.787Z,12.48
2023-01-29T09:25:23.788Z,13.07
2023-01-29T09:27:50.836Z,13.45
2023-01-29T09:30:18.377Z,12.77
2023-01-29T09:32:54.139Z,14.57
2023-01-29T09:35:25.053Z,13.07
2023-01-29T09:37:52.570Z,16.13
2023-01-29T09:40:42.761Z,13.43
2023-01-29T09:43:18.658Z,13.35
2023-01-29T09:46:15.291Z,10.00
2023-01-29T09:48:44.269Z,9.80
2023-01-29T09:51:23.798Z,9.82
2023-01-29T09:54:18.323Z,9.18
2023-01-29T09:56:46.448Z,9.55
2023-01-29T09:59:15.192Z,9.00
2023-01-29T10:02:08.217Z,9.45
2023-01-29T10:05:04.842Z,7.75
2023-01-29T10:08:00.733Z,7.93
2023-01-29T10:10:40.222Z,7.75
2023-01-29T10:13:32.865Z,8.32
2023-01-29T10:16:07.828Z,8.65
2023-01-29T10:19:07.939Z,8.60
2023-01-29T10:21:56.355Z,9.38
2023-01-29T10:24:50.230Z,8.98
2023-01-29T10:27:18.951Z,8.98
2023-01-29T10:29:49.170Z,7.55
2023-01-29T10:32:19.024Z,7.32
2023-01-29T10:34:52.365Z,7.47
2023-01-29T10:37:40.740Z,7.60
2023-01-29T10:40:34.153Z,8.93
2023-01-29T10:43:10.463Z,8.20
2023-01-29T10:45:42.311Z,8.70
2023-01-29T10:48:27.856Z,8.60
2023-01-29T10:53:59.488Z,9.07
2023-01-29T10:56:41.380Z,9.32
2023-01-29T10:59:45.197Z,9.10
2023-01-29T11:02:21.258Z,9.38
2023-01-29T11:04:48.911Z,9.40
2023-01-29T11:07:19.753Z,10.57
2023-01-29T11:10:09.784Z,11.10
2023-01-29T11:12:38.839Z,8.85
2023-01-29T11:15:19.867Z,9.45
2023-01-29T11:18:16.189Z,9.18
2023-01-29T11:20:44.696Z,8.80
2023-01-29T11:23:31.909Z,9.70
2023-01-29T11:26:00.350Z,9.02
2023-01-29T11:28:47.645Z,9.32
2023-01-29T11:31:37.156Z,10.02
2023-01-29T11:34:19.662Z,9.73
2023-01-29T11:36:47.050Z,10.32
2023-01-29T11:44:34.763Z,10.98
2023-01-29T11:47:31.166Z,10.18
2023-01-29T11:50:01.536Z,10.70
2023-01-29T11:52:37.464Z,11.10
2023-01-29T11:57:41.792Z,12.35
2023-01-29T12:00:38.237Z,10.90
2023-01-29T12:03:23.237Z,10.77
2023-01-29T12:05:58.430Z,12.07
2023-01-29T12:08:28.655Z,10.57
2023-01-29T12:11:24.830Z,13.10
2023-01-29T12:13:56.349Z,11.20
2023-01-29T12:16:49.045Z,10.90
2023-01-29T12:22:02.958Z,11.52
2023-01-29T12:27:49.565Z,11.10
2023-01-29T13:44:49.398Z,14.00
2023-01-29T13:50:01.410Z,14.45
2023-01-29T14:15:42.171Z,13.57
2023-01-29T14:18:09.184Z,13.63
2023-01-29T14:20:48.165Z,16.35
2023-01-29T14:23:30.656Z,15.88
2023-01-29T14:26:00.164Z,15.70
2023-01-29T14:28:30.755Z,14.90
2023-01-29T14:30:58.330Z,13.90
2023-01-29T14:33:41.861Z,14.80
2023-01-29T14:36:13.472Z,14.68
2023-01-29T14:38:46.603Z,14.05
2023-01-29T14:41:28.817Z,13.68
2023-01-29T14:44:33.268Z,14.18
2023-01-29T14:47:00.243Z,13.80
2023-01-29T14:49:49.536Z,15.35
2023-01-29T14:57:16.859Z,14.73
2023-01-29T15:04:58.134Z,15.30
2023-01-29T15:07:38.595Z,15.07
2023-01-29T15:10:23.201Z,15.55
2023-01-29T15:13:03.419Z,16.15
2023-01-29T15:15:48.937Z,15.73
2023-01-29T15:18:20.667Z,14.55
2023-01-29T15:20:47.710Z,15.45
2023-01-29T15:23:33.843Z,14.90
2023-01-29T15:26:04.266Z,14.82
2023-01-29T15:28:33.450Z,14.98
2023-01-29T15:48:37.934Z,15.68
2023-01-29T15:51:10.400Z,16.95
2023-01-29T15:53:49.373Z,18.52
2023-01-29T15:56:20.067Z,18.08
2023-01-29T15:58:51.954Z,18.08
2023-01-29T16:01:19.172Z,17.63
2023-01-29T16:03:50.037Z,17.60
2023-01-29T16:06:17.189Z,17.75
2023-01-29T16:08:49.660Z,17.33
2023-01-29T16:11:18.995Z,16.45
2023-01-29T16:13:50.037Z,18.13
2023-01-29T16:16:21.960Z,19.35
2023-01-29T16:19:00.055Z,17.35
2023-01-29T16:21:35.558Z,17.50
2023-01-29T16:24:06.258Z,17.73
2023-01-29T16:26:37.529Z,20.33
2023-01-29T16:29:11.253Z,20.75
2023-01-29T16:31:39.815Z,21.30
2023-01-29T16:34:19.917Z,20.20
2023-01-29T16:36:49.106Z,20.52
2023-01-29T16:39:25.053Z,19.33
2023-01-29T16:42:17.560Z,18.17
2023-01-29T16:45:02.773Z,20.08
2023-01-29T16:47:43.725Z,21.30
2023-01-29T16:50:53.947Z,22.95
2023-01-29T16:53:24.634Z,22.77
2023-01-29T16:55:52.628Z,19.08
2023-01-29T16:58:24.665Z,20.88
2023-01-29T17:01:09.267Z,20.73
2023-01-29T17:03:37.439Z,21.15
2023-01-29T17:06:21.171Z,21.38
2023-01-29T17:08:48.453Z,19.52
2023-01-29T17:11:30.721Z,21.88
2023-01-29T17:13:58.159Z,20.45
2023-01-29T17:16:33.910Z,22.27
2023-01-29T17:19:01.380Z,23.35
2023-01-29T17:21:30.461Z,22.08
2023-01-29T17:23:57.346Z,20.55
2023-01-29T17:26:24.957Z,22.60
2023-01-29T17:28:53.489Z,23.55
2023-01-29T17:31:21.664Z,22.20
2023-01-29T17:33:48.663Z,21.45
2023-01-29T17:36:17.374Z,23.20
2023-01-29T17:38:44.977Z,22.65
2023-01-29T17:41:30.509Z,22.02
2023-01-29T17:43:57.485Z,21.42
2023-01-29T17:46:24.513Z,23.27
2023-01-29T17:48:52.373Z,21.85
2023-01-29T17:51:19.306Z,22.73
2023-01-29T17:53:47.353Z,22.48
2023-01-29T17:56:32.440Z,21.02
2023-01-29T17:58:59.639Z,22.10
2023-01-29T18:01:26.682Z,22.50
2023-01-29T18:03:53.657Z,24.35
2023-01-29T18:06:28.394Z,24.50
2023-01-29T18:08:56.505Z,23.48
2023-01-29T18:11:23.556Z,24.38
2023-01-29T18:13:50.578Z,23.63
2023-01-29T18:16:22.164Z,25.80
2023-01-29T18:18:50.897Z,25.98
2023-01-29T18:21:18.070Z,25.13
2023-01-29T18:23:45.024Z,23.90
2023-01-29T18:26:16.927Z,22.92
2023-01-29T18:28:43.943Z,22.45
2023-01-29T18:31:13.042Z,23.00
2023-01-29T18:33:40.841Z,22.48
2023-01-29T18:36:08.401Z,22.15
2023-01-29T18:38:35.421Z,23.38
2023-01-29T18:41:11.420Z,25.77
2023-01-29T18:43:39.377Z,26.63
2023-01-29T18:46:07.525Z,24.05
2023-01-29T18:48:35.409Z,22.67
2023-01-29T18:51:02.342Z,22.38
2023-01-29T18:53:29.251Z,24.27
2023-01-29T18:56:04.227Z,21.88
2023-01-29T18:58:35.011Z,24.00
2023-01-29T19:01:09.428Z,27.27
2023-01-29T19:03:37.403Z,23.63
2023-01-29T19:06:06.370Z,24.85
2023-01-29T19:08:33.748Z,24.95
2023-01-29T19:11:03.890Z,26.08
2023-01-29T19:13:31.877Z,26.65
2023-01-29T19:15:59.132Z,26.02
2023-01-29T19:18:26.891Z,28.13
2023-01-29T19:20:54.822Z,25.00
2023-01-29T19:23:22.135Z,22.88
2023-01-29T19:25:49.106Z,25.63
2023-01-29T19:28:16.085Z,25.10
2023-01-29T19:30:43.176Z,26.90
2023-01-29T19:33:10.668Z,24.92
2023-01-29T19:35:37.656Z,25.70
2023-01-29T19:38:05.105Z,24.77
2023-01-29T19:40:32.125Z,25.27
2023-01-29T19:42:59.498Z,26.58
2023-01-29T19:45:49.183Z,27.38
2023-01-29T19:48:16.999Z,27.65
2023-01-29T19:50:43.908Z,28.02
2023-01-29T19:53:10.842Z,26.98
2023-01-29T19:55:38.596Z,26.92
2023-01-29T19:58:05.526Z,35.17
2023-01-29T20:00:32.554Z,28.92
2023-01-29T20:02:59.523Z,26.33
2023-01-29T20:05:27.170Z,25.65
2023-01-29T20:07:54.502Z,29.30
2023-01-29T20:10:21.675Z,32.90
2023-01-29T20:12:48.639Z,28.45
2023-01-29T20:15:16.322Z,25.38
2023-01-29T20:17:45.607Z,24.80
2023-01-29T21:16:32.226Z,22.85
2023-01-29T21:18:59.855Z,21.10
2023-01-29T21:21:26.983Z,21.55
2023-01-29T21:23:54.312Z,23.33
2023-01-29T21:26:23.338Z,27.40
2023-01-29T21:28:50.414Z,23.15
2023-01-29T21:31:17.740Z,21.05
2023-01-29T21:33:45.037Z,21.38
2023-01-29T21:36:12.174Z,21.85
2023-01-29T21:38:39.762Z,20.92
2023-01-29T21:41:09.761Z,20.90
2023-01-29T21:43:37.837Z,20.63
2023-01-29T21:46:11.847Z,19.33
2023-01-29T21:48:39.989Z,19.98
2023-01-29T21:51:07.450Z,22.05
2023-01-29T21:53:34.972Z,21.02
2023-01-29T21:56:04.311Z,18.50
2023-01-29T21:58:32.178Z,21.17
2023-01-29T22:01:35.125Z,20.58
2023-01-29T22:03:47.417Z,20.17
2023-01-29T22:06:15.172Z,23.52
2023-01-29T22:08:42.128Z,18.27
2023-01-29T22:11:10.050Z,17.92
2023-01-29T22:13:37.179Z,16.02
2023-01-29T22:16:06.001Z,18.08
2023-01-29T22:18:33.726Z,17.08
2023-01-29T22:21:02.933Z,16.27
2023-01-29T22:23:31.035Z,16.23
2023-01-29T22:26:05.813Z,16.65
2023-01-29T22:28:32.746Z,16.55
2023-01-29T22:31:04.097Z,16.50
2023-01-29T22:33:31.400Z,17.58
2023-01-29T22:35:58.291Z,17.13
2023-01-29T22:38:25.492Z,18.05
2023-01-29T22:40:53.977Z,20.17
2023-01-29T22:43:21.526Z,17.45
2023-01-29T22:45:48.696Z,16.73
2023-01-29T22:48:15.809Z,14.80
2023-01-29T22:50:42.780Z,15.75
2023-01-29T22:53:09.863Z,14.30
2023-01-29T22:55:36.769Z,15.65
2023-01-29T22:58:03.640Z,15.85
2023-01-29T23:00:30.557Z,21.60
2023-01-29T23:02:57.533Z,17.17
2023-01-29T23:05:24.550Z,14.93
2023-01-29T23:07:51.514Z,16.88
2023-01-29T23:10:18.819Z,15.35
2023-01-29T23:12:45.895Z,18.15
2023-01-29T23:15:12.817Z,14.38
2023-01-29T23:17:39.820Z,12.88
2023-01-29T23:20:08.294Z,12.57
2023-01-29T23:22:35.409Z,12.00
2023-01-29T23:25:02.836Z,12.18
2023-01-29T23:27:29.805Z,15.35
2023-01-29T23:29:56.691Z,12.30
2023-01-29T23:32:23.696Z,12.90
2023-01-29T23:34:50.584Z,11.13
2023-01-29T23:37:17.501Z,11.80
2023-01-29T23:39:44.420Z,12.75
2023-01-29T23:42:11.308Z,11.68
2023-01-29T23:44:40.171Z,14.70
2023-01-29T23:47:07.755Z,11.10
2023-01-29T23:49:34.947Z,10.95
2023-01-29T23:52:02.259Z,9.95
2023-01-29T23:54:29.285Z,11.02
2023-01-29T23:56:56.200Z,13.50
2023-01-29T23:59:23.163Z,10.25
